CheckWX is a tool to help pilots better visualize weather data.  It is not intended as a substitute for an official pre-flight weather briefing.

03:14:37 UTC

0A9 METAR
Elizabethton Municipal Airport
Elizabethton, Tennessee, USA
Current

20 mins ago

K0A9 230255Z AUTO 00000KT 10SM CLR 18/15 A3015 RMK AO2
Observed
Sep-23 @ 02:55 UTC
Visibility
10 SM
Flight Rules
VFR
Cloud Levels
  • Clear skies
Temperature
18°C / 64°F
Dewpoint
15°C / 59°F
Humidity
83%
Altimeter
30.15" Hg
Pressure
1021.02 hPa
Previous

40 mins ago

K0A9 230235Z AUTO 00000KT 10SM CLR 18/15 A3015 RMK AO2
Observed
Sep-23 @ 02:35 UTC
Visibility
10 SM
Flight Rules
VFR
Cloud Levels
  • Clear skies
Temperature
18°C / 64°F
Dewpoint
15°C / 59°F
Humidity
83%
Altimeter
30.15" Hg
Pressure
1021.02 hPa
Previous

60 mins ago

K0A9 230215Z AUTO 00000KT 10SM CLR 18/15 A3014 RMK AO2
Observed
Sep-23 @ 02:15 UTC
Visibility
10 SM
Flight Rules
VFR
Cloud Levels
  • Clear skies
Temperature
18°C / 64°F
Dewpoint
15°C / 59°F
Humidity
83%
Altimeter
30.14" Hg
Pressure
1020.62 hPa